Time;durP1;ratioP1;P1;durP2;ratioP2;P2;SDS_P1;SDS_P2;PMS_P1;PMS_P2;Temp;Humidity;BMP_temperature;BMP_pressure;BME280_temperature;BME280_humidity;BME280_pressure;Samples;Min_cycle;Max_cycle;Signal;HPM_P1;HPM_P2
2023/07/25 00:00:53;;;;;;;5.50;5.00;;;18.90;99.90;;;;;;4916977;29;20478;-76
2023/07/25 00:03:19;;;;;;;5.23;4.83;;;19.00;99.90;;;;;;4916260;29;20553;-76
2023/07/25 00:05:48;;;;;;;4.97;4.53;;;18.90;99.90;;;;;;4916347;29;20501;-77
2023/07/25 00:08:15;;;;;;;5.83;5.23;;;18.90;99.90;;;;;;4916498;29;20572;-82
2023/07/25 00:10:42;;;;;;;5.73;5.00;;;18.90;99.90;;;;;;4916839;29;20487;-82
2023/07/25 00:13:09;;;;;;;7.30;5.90;;;18.90;99.90;;;;;;4917014;29;20976;-76
2023/07/25 00:15:36;;;;;;;5.90;5.27;;;18.90;99.90;;;;;;4915700;29;20478;-76
2023/07/25 00:18:04;;;;;;;5.43;4.27;;;18.90;99.90;;;;;;4916854;29;20883;-76
2023/07/25 00:20:31;;;;;;;5.03;4.63;;;18.90;99.90;;;;;;4916202;29;20477;-77
2023/07/25 00:22:59;;;;;;;4.43;4.10;;;18.90;99.90;;;;;;4916830;29;20484;-76
2023/07/25 00:25:27;;;;;;;4.43;4.03;;;18.90;99.90;;;;;;4916119;29;20466;-76
2023/07/25 00:27:54;;;;;;;6.50;5.90;;;18.90;99.90;;;;;;4917904;29;20541;-83
2023/07/25 00:30:21;;;;;;;4.40;4.00;;;18.90;99.90;;;;;;4919339;29;20810;-83
2023/07/25 00:32:48;;;;;;;5.40;5.00;;;18.90;99.90;;;;;;4916642;29;20506;-78
2023/07/25 00:35:15;;;;;;;4.73;4.40;;;18.90;99.90;;;;;;4916582;29;20830;-77
2023/07/25 00:37:42;;;;;;;5.93;5.43;;;18.90;99.90;;;;;;4916191;29;20511;-77
2023/07/25 00:40:11;;;;;;;5.33;4.40;;;18.90;99.90;;;;;;4916583;29;20548;-76
2023/07/25 00:42:38;;;;;;;6.10;4.73;;;18.90;99.90;;;;;;4916701;29;20501;-83
2023/07/25 00:45:07;;;;;;;6.27;5.67;;;18.90;99.90;;;;;;4917651;29;20506;-83
2023/07/25 00:47:34;;;;;;;4.70;4.30;;;18.90;99.90;;;;;;4915878;29;20473;-77
2023/07/25 00:50:01;;;;;;;6.73;5.10;;;18.80;99.90;;;;;;4917019;29;20473;-82
2023/07/25 00:52:28;;;;;;;5.07;4.57;;;18.80;99.90;;;;;;4915993;29;20481;-77
2023/07/25 00:54:55;;;;;;;5.10;4.57;;;18.80;99.90;;;;;;4916393;29;20493;-77
2023/07/25 00:57:23;;;;;;;6.63;5.77;;;18.80;99.90;;;;;;4916126;29;20564;-77
2023/07/25 00:59:50;;;;;;;5.57;5.00;;;18.80;99.90;;;;;;4918789;29;20742;-77
2023/07/25 01:02:17;;;;;;;7.63;5.73;;;18.70;99.90;;;;;;4920179;29;20508;-83
2023/07/25 01:04:44;;;;;;;5.20;4.80;;;18.80;99.90;;;;;;4919560;29;20485;-77
2023/07/25 01:07:14;;;;;;;6.13;4.70;;;18.80;99.90;;;;;;4919343;29;20549;-77
2023/07/25 01:09:42;;;;;;;5.40;4.93;;;18.70;99.90;;;;;;4919506;29;20548;-77
2023/07/25 01:12:10;;;;;;;5.80;5.27;;;18.70;99.90;;;;;;4919602;29;20556;-77
2023/07/25 01:14:40;;;;;;;6.60;5.73;;;18.70;99.90;;;;;;4918948;29;20887;-82
2023/07/25 01:17:10;;;;;;;6.50;5.90;;;18.70;99.90;;;;;;4919906;29;20532;-82
2023/07/25 01:19:39;;;;;;;5.60;5.13;;;18.70;99.90;;;;;;4919499;29;20975;-82
2023/07/25 01:22:08;;;;;;;5.80;5.10;;;18.70;99.90;;;;;;4920540;29;20553;-77
2023/07/25 01:24:37;;;;;;;5.63;5.20;;;18.60;99.90;;;;;;4918657;29;20481;-77
2023/07/25 01:27:04;;;;;;;7.30;4.90;;;18.60;99.90;;;;;;4919610;29;20557;-77
2023/07/25 01:29:31;;;;;;;5.90;5.33;;;18.60;99.90;;;;;;4918833;29;20473;-77
2023/07/25 01:31:58;;;;;;;6.53;5.40;;;18.60;99.90;;;;;;4919550;29;20496;-78
2023/07/25 01:34:25;;;;;;;6.20;5.60;;;18.60;99.90;;;;;;4919013;29;20557;-77
2023/07/25 01:36:52;;;;;;;6.07;5.57;;;18.60;99.90;;;;;;4919393;29;20959;-82
2023/07/25 01:39:19;;;;;;;6.23;5.63;;;18.60;99.90;;;;;;4919570;29;21050;-82
2023/07/25 01:41:47;;;;;;;5.43;5.03;;;18.60;99.90;;;;;;4918646;29;20557;-82
2023/07/25 01:44:14;;;;;;;6.30;5.70;;;18.60;99.90;;;;;;4909762;29;21040;-77
2023/07/25 01:46:41;;;;;;;5.77;5.27;;;18.60;99.90;;;;;;4918120;29;20560;-77
2023/07/25 01:49:10;;;;;;;6.13;5.63;;;18.60;99.90;;;;;;4919564;29;20837;-82
2023/07/25 01:51:37;;;;;;;6.63;6.03;;;18.60;99.90;;;;;;4919267;29;20469;-82
2023/07/25 01:54:04;;;;;;;6.83;5.30;;;18.60;99.90;;;;;;4918794;29;20538;-77
2023/07/25 01:56:31;;;;;;;6.83;5.60;;;18.60;99.90;;;;;;4917716;29;20549;-82
2023/07/25 01:58:59;;;;;;;6.00;5.50;;;18.60;99.90;;;;;;4919275;29;20540;-82
2023/07/25 02:01:26;;;;;;;8.00;7.23;;;18.60;99.90;;;;;;4919496;29;20504;-82
2023/07/25 02:03:54;;;;;;;6.03;5.53;;;18.60;99.90;;;;;;4917821;29;20484;-78
2023/07/25 02:06:20;;;;;;;7.50;6.13;;;18.60;99.90;;;;;;4922293;29;20501;-83
2023/07/25 02:08:47;;;;;;;5.90;5.33;;;18.60;99.90;;;;;;4920204;29;20573;-77
2023/07/25 02:11:14;;;;;;;7.57;6.83;;;18.60;99.90;;;;;;4918966;29;20552;-77
2023/07/25 02:13:41;;;;;;;7.90;7.10;;;18.60;99.90;;;;;;4919165;29;20557;-82
2023/07/25 02:16:10;;;;;;;7.20;6.13;;;18.60;99.90;;;;;;4919410;29;20879;-77
2023/07/25 02:18:37;;;;;;;7.50;6.80;;;18.60;99.90;;;;;;4919580;29;20481;-82
2023/07/25 02:21:04;;;;;;;6.37;5.87;;;18.70;99.90;;;;;;4923840;29;21022;-77
2023/07/25 02:23:31;;;;;;;7.67;6.37;;;18.60;99.90;;;;;;4918269;29;20481;-77
2023/07/25 02:25:57;;;;;;;7.67;7.07;;;18.60;99.90;;;;;;4918313;29;20952;-77
2023/07/25 02:28:24;;;;;;;8.53;7.77;;;18.60;99.90;;;;;;4918631;29;20807;-77
2023/07/25 02:30:53;;;;;;;11.07;6.30;;;18.70;99.90;;;;;;4918037;29;20548;-77
2023/07/25 02:33:21;;;;;;;6.80;6.17;;;18.60;99.90;;;;;;4918373;29;20538;-77
2023/07/25 02:35:48;;;;;;;6.37;5.87;;;18.60;99.90;;;;;;4917735;29;20482;-83
2023/07/25 02:38:20;;;;;;;7.37;5.90;;;18.60;99.90;;;;;;4918322;29;20560;-82
2023/07/25 02:40:48;;;;;;;6.30;5.70;;;18.60;99.90;;;;;;4917708;29;20500;-83
2023/07/25 02:43:14;;;;;;;7.50;6.37;;;18.60;99.90;;;;;;4918202;29;20473;-82
2023/07/25 02:45:41;;;;;;;8.83;8.00;;;18.60;99.90;;;;;;4916534;29;20481;-77
2023/07/25 02:48:08;;;;;;;8.00;6.30;;;18.60;99.90;;;;;;4917973;29;20804;-77
2023/07/25 02:50:36;;;;;;;7.50;6.83;;;18.50;99.90;;;;;;4917893;29;20568;-77
2023/07/25 02:53:03;;;;;;;8.33;5.97;;;18.60;99.90;;;;;;4917721;29;20548;-82
2023/07/25 02:55:31;;;;;;;7.23;6.63;;;18.60;99.90;;;;;;4917910;29;20812;-83
2023/07/25 02:57:57;;;;;;;7.33;6.63;;;18.60;99.90;;;;;;4917149;29;20860;-82
2023/07/25 03:00:25;;;;;;;9.43;7.20;;;18.60;99.90;;;;;;4917535;29;20505;-83
2023/07/25 03:02:52;;;;;;;8.43;7.20;;;18.60;99.90;;;;;;4917393;29;20812;-77
2023/07/25 03:05:19;;;;;;;9.50;6.73;;;18.60;99.90;;;;;;4917828;29;20797;-77
2023/07/25 03:07:48;;;;;;;8.70;7.90;;;18.60;99.90;;;;;;4917053;29;20506;-83
2023/07/25 03:10:15;;;;;;;8.37;7.67;;;18.60;99.90;;;;;;4909408;29;20514;-82
2023/07/25 03:12:41;;;;;;;10.90;6.77;;;18.60;99.90;;;;;;4917191;29;20882;-82
2023/07/25 03:15:09;;;;;;;9.20;7.10;;;18.60;99.90;;;;;;4916935;29;20501;-77
2023/07/25 03:17:36;;;;;;;8.57;7.27;;;18.60;99.90;;;;;;4917289;29;21052;-77
2023/07/25 03:20:03;;;;;;;11.70;7.47;;;18.60;99.90;;;;;;4909257;29;20497;-82
2023/07/25 03:22:30;;;;;;;7.83;7.13;;;18.60;99.90;;;;;;4917090;29;20501;-83
2023/07/25 03:24:58;;;;;;;6.80;6.20;;;18.60;99.90;;;;;;4907103;29;20508;-82
2023/07/25 03:27:26;;;;;;;6.83;6.33;;;18.60;99.90;;;;;;4916989;29;20500;-77
2023/07/25 03:29:53;;;;;;;7.50;6.80;;;18.60;99.90;;;;;;4916912;29;21046;-83
2023/07/25 03:32:20;;;;;;;6.87;6.37;;;18.60;99.90;;;;;;4916695;29;20557;-77
2023/07/25 03:34:47;;;;;;;7.30;6.20;;;18.50;99.90;;;;;;4916838;29;20509;-83
2023/07/25 03:37:15;;;;;;;6.30;5.53;;;18.60;99.90;;;;;;4917401;29;20561;-77
2023/07/25 03:39:42;;;;;;;7.23;6.63;;;18.60;99.90;;;;;;4917203;29;20552;-83
2023/07/25 03:42:10;;;;;;;9.90;6.40;;;18.50;99.90;;;;;;4916569;29;20561;-77
2023/07/25 03:44:37;;;;;;;6.90;6.40;;;18.60;99.90;;;;;;4917562;29;20489;-77
2023/07/25 03:47:05;;;;;;;7.30;6.70;;;18.60;99.90;;;;;;4916905;29;20505;-77
2023/07/25 03:49:31;;;;;;;7.47;6.23;;;18.50;99.90;;;;;;4917237;29;20512;-77
2023/07/25 03:51:58;;;;;;;10.97;6.30;;;18.50;99.90;;;;;;4916933;29;20552;-83
2023/07/25 03:54:25;;;;;;;6.60;6.00;;;18.50;99.90;;;;;;4917033;29;20580;-83
2023/07/25 03:56:52;;;;;;;6.73;6.13;;;18.50;99.90;;;;;;4916737;29;20473;-82
2023/07/25 03:59:20;;;;;;;8.03;6.20;;;18.50;99.90;;;;;;4917310;29;20544;-83
2023/07/25 04:01:47;;;;;;;7.23;6.60;;;18.50;99.90;;;;;;4916625;29;20509;-77
2023/07/25 04:04:18;;;;;;;7.83;6.13;;;18.50;99.90;;;;;;4916933;29;20489;-83
2023/07/25 04:06:47;;;;;;;7.90;6.47;;;18.50;99.90;;;;;;4917044;29;20515;-85
2023/07/25 04:09:15;;;;;;;7.37;6.30;;;18.50;99.90;;;;;;4916475;29;20520;-77
2023/07/25 04:11:44;;;;;;;7.17;5.83;;;18.50;99.90;;;;;;4916623;29;20542;-76
2023/07/25 04:14:10;;;;;;;6.03;5.53;;;18.60;99.90;;;;;;4915636;29;20971;-76
2023/07/25 04:16:39;;;;;;;8.27;6.97;;;18.50;99.90;;;;;;4917011;29;20517;-82
2023/07/25 04:19:06;;;;;;;13.17;7.20;;;18.50;99.90;;;;;;4916379;29;21027;-81
2023/07/25 04:21:32;;;;;;;8.00;7.23;;;18.50;99.90;;;;;;4916570;29;20474;-83
2023/07/25 04:24:00;;;;;;;6.80;6.10;;;18.50;99.90;;;;;;4916781;29;20489;-82
2023/07/25 04:26:27;;;;;;;9.17;7.07;;;18.40;99.90;;;;;;4917343;29;20477;-82
2023/07/25 04:28:54;;;;;;;6.17;5.77;;;18.40;99.90;;;;;;4916486;29;20548;-83
2023/07/25 04:31:20;;;;;;;9.87;8.50;;;18.40;99.90;;;;;;4916756;29;20979;-83
2023/07/25 04:33:49;;;;;;;6.40;5.63;;;18.50;99.90;;;;;;4916333;29;20492;-76
2023/07/25 04:36:16;;;;;;;8.03;5.80;;;18.50;99.90;;;;;;4918868;29;20465;-82
2023/07/25 04:38:43;;;;;;;6.60;6.10;;;18.50;99.90;;;;;;4920489;29;20469;-77
2023/07/25 04:41:10;;;;;;;6.53;5.63;;;18.50;99.90;;;;;;4920138;29;20975;-76
2023/07/25 04:43:37;;;;;;;6.30;5.70;;;18.50;99.90;;;;;;4920257;29;20477;-76
2023/07/25 04:46:03;;;;;;;5.77;5.30;;;18.50;99.90;;;;;;4920156;29;20558;-77
2023/07/25 04:48:31;;;;;;;9.00;5.50;;;18.50;99.90;;;;;;4910327;29;20487;-82
2023/07/25 04:50:59;;;;;;;6.53;6.03;;;18.50;99.90;;;;;;4919733;29;20492;-82
2023/07/25 04:53:27;;;;;;;7.93;6.20;;;18.50;99.90;;;;;;4920478;29;20503;-82
2023/07/25 04:55:54;;;;;;;9.87;6.60;;;18.50;99.90;;;;;;4920040;29;20501;-77
2023/07/25 04:58:21;;;;;;;7.77;6.97;;;18.60;99.90;;;;;;4919695;29;20461;-83
2023/07/25 05:00:48;;;;;;;7.00;6.43;;;18.50;99.90;;;;;;4920256;29;20469;-77
2023/07/25 05:03:15;;;;;;;7.87;5.03;;;18.60;99.90;;;;;;4919407;29;20488;-78
2023/07/25 05:05:42;;;;;;;8.83;5.43;;;18.50;99.90;;;;;;4919735;29;20564;-78
2023/07/25 05:08:10;;;;;;;6.67;5.23;;;18.50;99.90;;;;;;4919915;29;21013;-78
2023/07/25 05:10:37;;;;;;;7.60;4.77;;;18.50;99.90;;;;;;4919594;29;20564;-78
2023/07/25 05:13:04;;;;;;;5.53;4.50;;;18.60;99.90;;;;;;4919692;29;20501;-77
2023/07/25 05:15:31;;;;;;;8.50;4.80;;;18.60;99.90;;;;;;4919536;29;20548;-77
2023/07/25 05:17:58;;;;;;;5.73;5.20;;;18.60;99.90;;;;;;4919464;29;20478;-77
2023/07/25 05:20:25;;;;;;;6.20;4.43;;;18.60;99.90;;;;;;4919717;29;20552;-82
2023/07/25 05:22:51;;;;;;;5.10;4.60;;;18.60;99.90;;;;;;4919734;29;20473;-82
2023/07/25 05:25:20;;;;;;;5.60;5.00;;;18.70;99.90;;;;;;4919162;29;20507;-77
2023/07/25 05:27:47;;;;;;;7.37;4.83;;;18.70;99.90;;;;;;4919355;29;20478;-83
2023/07/25 05:30:14;;;;;;;7.60;5.20;;;18.60;99.90;;;;;;4919400;29;20541;-77
2023/07/25 05:32:41;;;;;;;6.57;4.00;;;18.70;99.90;;;;;;4911430;29;20504;-77
2023/07/25 05:35:08;;;;;;;6.50;4.40;;;18.70;99.90;;;;;;4908717;29;20509;-77
2023/07/25 05:37:37;;;;;;;7.97;4.43;;;18.70;99.90;;;;;;4918741;29;20927;-77
2023/07/25 05:40:05;;;;;;;5.80;5.10;;;18.80;99.90;;;;;;4919362;29;20469;-83
2023/07/25 05:42:36;;;;;;;4.30;3.90;;;18.80;99.90;;;;;;4919058;29;20955;-83
2023/07/25 05:45:03;;;;;;;3.70;2.90;;;18.70;99.90;;;;;;4918694;29;20505;-83
2023/07/25 05:47:30;;;;;;;6.10;2.77;;;18.80;99.90;;;;;;4918726;29;20776;-83
2023/07/25 05:50:26;;;;;;;6.73;2.87;;;18.80;99.90;;;;;;4919330;29;20470;-77
2023/07/25 05:52:53;;;;;;;3.30;2.50;;;18.70;99.90;;;;;;4913513;29;20484;-77
2023/07/25 05:55:23;;;;;;;4.10;3.20;;;18.70;99.90;;;;;;4908699;29;20522;-84
2023/07/25 05:57:51;;;;;;;6.03;3.30;;;18.70;99.90;;;;;;4902236;29;20475;-78
2023/07/25 06:00:19;;;;;;;6.80;3.00;;;18.70;99.90;;;;;;4900414;29;20554;-76
2023/07/25 06:02:46;;;;;;;6.77;4.07;;;18.70;99.90;;;;;;4902020;29;20498;-82
2023/07/25 06:05:13;;;;;;;3.57;2.77;;;18.80;99.90;;;;;;4901211;29;20494;-77
2023/07/25 06:07:40;;;;;;;3.63;2.77;;;18.80;99.90;;;;;;4901740;29;20505;-82
2023/07/25 06:10:08;;;;;;;8.00;4.00;;;18.90;99.90;;;;;;4902683;29;20482;-83
2023/07/25 06:12:35;;;;;;;6.30;3.30;;;19.00;99.90;;;;;;4899286;29;20482;-77
2023/07/25 06:15:04;;;;;;;11.33;4.13;;;19.10;99.90;;;;;;4899099;29;20510;-79
2023/07/25 06:17:30;;;;;;;11.63;4.23;;;19.10;99.90;;;;;;4891065;29;20975;-77
2023/07/25 06:19:57;;;;;;;6.87;3.50;;;19.20;99.90;;;;;;4898983;29;20535;-78
2023/07/25 06:22:24;;;;;;;5.63;2.90;;;19.30;99.90;;;;;;4899578;29;20489;-77
2023/07/25 06:24:52;;;;;;;4.60;3.63;;;19.40;99.90;;;;;;4899326;29;20585;-76
2023/07/25 06:27:19;;;;;;;7.80;3.97;;;19.40;99.90;;;;;;4898880;29;20482;-77
2023/07/25 06:29:46;;;;;;;8.93;3.57;;;19.50;99.90;;;;;;4901085;29;20566;-83
2023/07/25 06:32:15;;;;;;;8.20;4.10;;;19.50;99.90;;;;;;4891001;29;20563;-83
2023/07/25 06:34:42;;;;;;;5.57;3.50;;;19.60;99.90;;;;;;4902000;29;20550;-84
2023/07/25 06:37:09;;;;;;;4.73;3.70;;;19.70;99.90;;;;;;4902349;29;20558;-82
2023/07/25 06:39:37;;;;;;;9.67;3.77;;;19.70;99.90;;;;;;4902220;29;21014;-84
2023/07/25 06:42:07;;;;;;;15.57;5.33;;;19.80;99.90;;;;;;4902439;29;20478;-83
2023/07/25 06:44:34;;;;;;;6.77;3.87;;;19.90;99.90;;;;;;4904397;29;20490;-84
2023/07/25 06:47:01;;;;;;;8.90;3.83;;;19.90;99.90;;;;;;4906566;29;20481;-78
2023/07/25 06:49:30;;;;;;;6.50;3.90;;;19.90;99.90;;;;;;4917940;29;20554;-76
2023/07/25 06:52:00;;;;;;;6.13;3.00;;;19.90;99.90;;;;;;4922567;29;20473;-83
2023/07/25 06:54:27;;;;;;;3.90;3.47;;;19.90;99.90;;;;;;4914814;29;20928;-83
2023/07/25 06:56:54;;;;;;;70.83;12.90;;;19.90;99.90;;;;;;4922152;29;20473;-83
2023/07/25 06:59:21;;;;;;;53.80;15.60;;;20.00;99.90;;;;;;4920779;29;20508;-76
2023/07/25 07:01:48;;;;;;;29.87;9.00;;;20.10;99.90;;;;;;4917662;29;20513;-84
2023/07/25 07:04:15;;;;;;;22.37;7.27;;;20.30;99.90;;;;;;4920227;29;20485;-83
2023/07/25 07:06:43;;;;;;;5.63;3.90;;;20.40;99.90;;;;;;4920217;29;20466;-83
2023/07/25 07:09:19;;;;;;;5.80;4.17;;;20.50;99.90;;;;;;4918324;29;20565;-76
2023/07/25 07:11:46;;;;;;;3.87;3.40;;;20.40;99.90;;;;;;4918029;29;20513;-78
2023/07/25 07:14:13;;;;;;;5.23;3.50;;;20.50;99.90;;;;;;4919644;29;20543;-83
2023/07/25 07:16:40;;;;;;;11.07;6.27;;;20.60;99.90;;;;;;4917401;29;20481;-82
2023/07/25 07:19:07;;;;;;;6.80;5.10;;;20.70;99.90;;;;;;4917489;29;20560;-82
2023/07/25 07:21:34;;;;;;;5.93;4.10;;;20.90;99.90;;;;;;4909825;29;20529;-82
2023/07/25 07:24:02;;;;;;;6.87;3.00;;;21.00;99.90;;;;;;4916931;29;20572;-82
2023/07/25 07:26:29;;;;;;;5.30;3.10;;;21.10;99.90;;;;;;4916684;29;20513;-83
2023/07/25 07:28:56;;;;;;;8.60;4.37;;;21.20;99.90;;;;;;4909501;29;20537;-77
2023/07/25 07:31:25;;;;;;;5.20;3.23;;;21.20;99.90;;;;;;4916867;29;20569;-77
2023/07/25 07:33:52;;;;;;;4.67;3.50;;;21.30;99.90;;;;;;4917186;29;20486;-77
2023/07/25 07:36:19;;;;;;;3.87;2.60;;;21.30;99.90;;;;;;4916766;29;20869;-83
2023/07/25 07:38:46;;;;;;;4.13;2.57;;;21.40;99.90;;;;;;4917182;29;20501;-82
2023/07/25 07:41:14;;;;;;;5.47;3.30;;;21.50;99.90;;;;;;4917290;29;20477;-83
2023/07/25 07:43:41;;;;;;;2.83;2.60;;;21.50;99.90;;;;;;4908736;29;20473;-80
2023/07/25 07:46:08;;;;;;;4.30;2.40;;;21.60;99.90;;;;;;4916858;29;20549;-83
2023/07/25 07:48:35;;;;;;;5.87;2.50;;;21.70;99.90;;;;;;4916895;29;20514;-83
2023/07/25 07:51:04;;;;;;;3.40;2.70;;;21.70;99.90;;;;;;4917634;29;20552;-83
2023/07/25 07:53:31;;;;;;;5.37;3.70;;;21.70;99.90;;;;;;4915942;29;20481;-82
2023/07/25 07:55:58;;;;;;;6.43;3.37;;;21.80;99.90;;;;;;4916971;29;20481;-77
2023/07/25 07:58:26;;;;;;;5.60;3.33;;;21.80;99.90;;;;;;4916591;29;20473;-77
2023/07/25 08:00:53;;;;;;;2.50;2.30;;;21.90;99.90;;;;;;4916993;29;20461;-83
2023/07/25 08:03:20;;;;;;;3.13;2.73;;;22.00;99.90;;;;;;4916221;29;20508;-83
2023/07/25 08:05:47;;;;;;;4.53;2.60;;;22.10;99.90;;;;;;4917024;29;20557;-77
2023/07/25 08:08:15;;;;;;;5.60;2.10;;;22.20;99.90;;;;;;4918361;29;20854;-83
2023/07/25 08:10:42;;;;;;;2.70;2.10;;;22.30;99.90;;;;;;4920740;29;20853;-83
2023/07/25 08:13:09;;;;;;;8.07;2.57;;;22.50;99.90;;;;;;4920819;29;20564;-83
2023/07/25 08:15:37;;;;;;;5.40;2.57;;;22.50;99.90;;;;;;4920339;29;20812;-83
2023/07/25 08:18:04;;;;;;;11.17;3.30;;;22.60;99.90;;;;;;4920818;29;20562;-85
2023/07/25 08:20:31;;;;;;;8.63;3.50;;;22.70;99.90;;;;;;4920570;29;20473;-82
2023/07/25 08:22:58;;;;;;;8.00;3.57;;;22.80;99.90;;;;;;4920614;29;20488;-83
2023/07/25 08:25:25;;;;;;;6.63;4.10;;;22.80;99.90;;;;;;4919815;29;20560;-82
2023/07/25 08:27:52;;;;;;;4.90;3.30;;;22.90;99.90;;;;;;4917969;29;20875;-82
2023/07/25 08:30:19;;;;;;;19.70;5.70;;;22.90;99.90;;;;;;4908547;29;21006;-76
2023/07/25 08:32:47;;;;;;;16.03;6.03;;;22.90;99.90;;;;;;4919663;29;20540;-83
2023/07/25 08:35:15;;;;;;;4.23;2.10;;;22.90;99.90;;;;;;4920542;29;20891;-84
2023/07/25 08:37:42;;;;;;;15.10;4.80;;;22.90;99.90;;;;;;4919804;29;20509;-82
2023/07/25 08:40:11;;;;;;;10.50;2.50;;;23.00;99.90;;;;;;4920526;29;20499;-77
2023/07/25 08:42:42;;;;;;;31.13;6.90;;;23.10;99.90;;;;;;4919956;29;20515;-77
2023/07/25 08:45:11;;;;;;;3.77;2.03;;;23.10;99.90;;;;;;4920135;29;20485;-77
2023/07/25 08:47:42;;;;;;;2.27;1.83;;;23.20;99.90;;;;;;4919871;29;21062;-77
2023/07/25 08:50:15;;;;;;;6.10;1.97;;;23.10;99.90;;;;;;4919759;29;20540;-78
2023/07/25 08:52:49;;;;;;;2.43;2.10;;;23.00;99.90;;;;;;4912052;29;20483;-78
2023/07/25 08:55:16;;;;;;;96.90;22.20;;;22.90;99.90;;;;;;4920523;29;20508;-78
2023/07/25 08:57:44;;;;;;;14.03;5.20;;;23.00;99.90;;;;;;4912636;29;20983;-83
2023/07/25 09:00:13;;;;;;;16.60;5.30;;;22.90;99.90;;;;;;4920122;29;20477;-83
2023/07/25 09:02:40;;;;;;;6.17;2.43;;;22.90;99.90;;;;;;4911872;29;20566;-78
2023/07/25 09:05:08;;;;;;;9.17;3.50;;;22.80;99.90;;;;;;4919838;29;20481;-78
2023/07/25 09:07:36;;;;;;;15.33;5.10;;;22.80;99.90;;;;;;4919629;29;20561;-83
2023/07/25 09:10:04;;;;;;;6.43;2.50;;;22.80;99.90;;;;;;4919883;29;21039;-78
2023/07/25 09:12:31;;;;;;;5.37;2.10;;;22.80;99.90;;;;;;4920222;29;20471;-83
2023/07/25 09:14:59;;;;;;;36.03;11.83;;;22.80;99.90;;;;;;4920133;29;20844;-78
2023/07/25 09:17:26;;;;;;;29.60;6.20;;;22.80;99.90;;;;;;4920058;29;21005;-77
2023/07/25 09:19:53;;;;;;;12.70;5.17;;;22.80;99.90;;;;;;4919144;29;20480;-83
2023/07/25 09:22:32;;;;;;;6.80;2.97;;;22.70;99.90;;;;;;4920391;29;20473;-83
2023/07/25 09:25:10;;;;;;;6.73;3.50;;;22.70;99.90;;;;;;4919698;29;20473;-77
2023/07/25 09:27:37;;;;;;;4.80;2.77;;;22.60;99.90;;;;;;4920236;29;21015;-82
2023/07/25 09:30:12;;;;;;;2.60;2.40;;;22.60;99.90;;;;;;4924232;29;20478;-82
2023/07/25 09:32:44;;;;;;;2.40;2.20;;;22.60;99.90;;;;;;4920570;29;20484;-82
2023/07/25 09:35:11;;;;;;;5.00;2.60;;;22.70;99.90;;;;;;4925803;29;20478;-82
2023/07/25 09:37:39;;;;;;;5.40;3.03;;;22.70;99.90;;;;;;4924158;29;20525;-77
2023/07/25 09:40:10;;;;;;;2.30;2.10;;;22.70;99.90;;;;;;4920664;29;20533;-83
2023/07/25 09:42:41;;;;;;;3.13;2.23;;;22.70;99.90;;;;;;4919834;29;20485;-82
2023/07/25 09:45:10;;;;;;;4.33;2.33;;;22.70;99.90;;;;;;4921359;29;20471;-83
2023/07/25 09:47:37;;;;;;;4.23;2.73;;;22.70;99.90;;;;;;4919231;29;20871;-83
2023/07/25 09:50:05;;;;;;;2.73;1.90;;;22.70;99.90;;;;;;4911584;29;20777;-83
2023/07/25 09:52:40;;;;;;;3.43;2.20;;;22.70;99.90;;;;;;4920121;29;20498;-83
2023/07/25 09:55:09;;;;;;;2.77;2.10;;;22.70;99.90;;;;;;4919309;29;20501;-77
2023/07/25 09:57:37;;;;;;;3.00;2.60;;;22.70;99.90;;;;;;4920356;29;20561;-82
2023/07/25 10:00:09;;;;;;;16.37;4.97;;;22.60;99.90;;;;;;4909132;29;20509;-82
2023/07/25 10:02:38;;;;;;;15.03;4.20;;;22.60;99.90;;;;;;4918885;29;20503;-77
2023/07/25 10:05:07;;;;;;;7.70;3.93;;;22.50;99.90;;;;;;4919132;29;20478;-77
2023/07/25 10:07:35;;;;;;;11.70;5.00;;;22.50;99.90;;;;;;4918728;29;20477;-77
2023/07/25 10:10:04;;;;;;;4.67;3.30;;;22.50;99.90;;;;;;4918064;29;20984;-77
2023/07/25 10:12:32;;;;;;;6.20;4.80;;;22.50;99.90;;;;;;4919015;29;20540;-83
2023/07/25 10:14:59;;;;;;;3.60;3.13;;;22.60;99.90;;;;;;4918512;29;20864;-77
2023/07/25 10:17:27;;;;;;;3.17;2.50;;;22.60;99.90;;;;;;4917737;29;20556;-76
2023/07/25 10:19:55;;;;;;;4.00;2.67;;;22.60;99.90;;;;;;4917861;29;20477;-77
2023/07/25 10:22:34;;;;;;;2.80;2.20;;;22.70;99.90;;;;;;4918713;29;20490;-77
2023/07/25 10:25:01;;;;;;;7.27;3.83;;;22.70;99.90;;;;;;4918647;29;20999;-82
2023/07/25 10:27:28;;;;;;;4.43;3.03;;;22.60;99.90;;;;;;4918528;29;20973;-83
2023/07/25 10:30:08;;;;;;;2.37;2.17;;;22.70;99.90;;;;;;4917841;29;20920;-82
2023/07/25 10:32:46;;;;;;;3.43;2.80;;;22.70;99.90;;;;;;4918203;29;20556;-76
2023/07/25 10:35:13;;;;;;;2.80;2.27;;;22.70;99.90;;;;;;4915874;29;20501;-83
2023/07/25 10:37:45;;;;;;;2.33;2.13;;;22.80;99.90;;;;;;4918845;29;20498;-77
2023/07/25 10:40:14;;;;;;;3.00;1.87;;;22.80;99.90;;;;;;4917815;29;20553;-83
2023/07/25 10:42:59;;;;;;;2.20;2.00;;;22.90;99.90;;;;;;4910460;29;20506;-77
2023/07/25 10:46:04;;;;;;;3.00;1.60;;;23.00;99.90;;;;;;4918175;29;20545;-76
2023/07/25 10:48:46;;;;;;;3.90;2.00;;;23.00;99.90;;;;;;4841581;29;20469;-77
2023/07/25 10:51:15;;;;;;;2.00;1.77;;;23.10;99.90;;;;;;4911644;29;20496;-83
2023/07/25 10:53:42;;;;;;;4.87;2.30;;;23.20;99.90;;;;;;4918559;29;20795;-83
2023/07/25 10:56:10;;;;;;;1.90;1.80;;;23.20;99.90;;;;;;4917641;29;20569;-78
2023/07/25 10:58:38;;;;;;;4.60;1.90;;;23.20;99.90;;;;;;4918776;29;20540;-83
2023/07/25 11:01:08;;;;;;;5.30;2.17;;;23.30;99.90;;;;;;4918480;29;20473;-78
2023/07/25 11:03:36;;;;;;;3.40;2.20;;;23.30;99.90;;;;;;4917601;29;20469;-77
2023/07/25 11:06:43;;;;;;;2.47;1.80;;;23.30;99.90;;;;;;4917740;29;20552;-77
2023/07/25 11:09:13;;;;;;;4.30;2.77;;;23.30;99.90;;;;;;4911884;29;20481;-83
2023/07/25 11:11:45;;;;;;;4.10;1.90;;;23.30;99.90;;;;;;4918112;29;20478;-78
2023/07/25 11:14:15;;;;;;;2.77;2.57;;;23.30;99.90;;;;;;4917793;29;20480;-84
2023/07/25 11:16:46;;;;;;;3.67;2.37;;;23.20;99.90;;;;;;4918757;29;20478;-83
2023/07/25 11:19:14;;;;;;;2.77;2.47;;;23.20;99.90;;;;;;4917580;29;20998;-78
2023/07/25 11:21:42;;;;;;;5.17;2.30;;;23.20;99.90;;;;;;4917649;29;20481;-83
2023/07/25 11:24:11;;;;;;;23.73;5.57;;;23.10;99.90;;;;;;4916721;29;20528;-83
2023/07/25 11:26:38;;;;;;;6.93;2.70;;;23.10;99.90;;;;;;4907718;29;20473;-83
2023/07/25 11:29:07;;;;;;;4.90;2.53;;;23.10;99.90;;;;;;4915662;29;20565;-78
2023/07/25 11:31:35;;;;;;;4.00;2.13;;;23.10;99.90;;;;;;4917044;29;20545;-84
2023/07/25 11:34:12;;;;;;;3.20;2.03;;;23.00;99.90;;;;;;4917088;29;20486;-78
2023/07/25 11:36:40;;;;;;;2.30;2.03;;;23.00;99.90;;;;;;4917625;29;20558;-83
2023/07/25 11:39:08;;;;;;;1.83;1.73;;;23.00;99.90;;;;;;4916869;29;20469;-83
2023/07/25 11:41:36;;;;;;;2.17;1.80;;;23.00;99.90;;;;;;4918054;29;20545;-83
2023/07/25 11:44:06;;;;;;;2.10;1.90;;;23.10;99.90;;;;;;4915877;29;20502;-78
2023/07/25 11:46:33;;;;;;;3.33;1.87;;;23.10;99.90;;;;;;4917629;29;20466;-83
2023/07/25 11:49:01;;;;;;;1.90;1.57;;;23.10;99.90;;;;;;4916744;29;20509;-83
2023/07/25 11:51:30;;;;;;;2.70;1.93;;;23.10;99.90;;;;;;4917768;29;20872;-83
2023/07/25 11:53:58;;;;;;;2.37;2.17;;;23.20;99.90;;;;;;4917344;29;20477;-83
2023/07/25 11:56:25;;;;;;;2.73;1.70;;;23.20;99.90;;;;;;4917184;29;20473;-83
2023/07/25 11:58:55;;;;;;;3.43;2.03;;;23.30;99.90;;;;;;4917736;29;20466;-84
2023/07/25 12:01:29;;;;;;;2.80;2.07;;;23.30;99.90;;;;;;4917033;29;20469;-84
2023/07/25 12:03:56;;;;;;;6.47;2.80;;;23.30;99.90;;;;;;4917342;29;20477;-83
2023/07/25 12:06:32;;;;;;;3.60;2.20;;;23.30;99.90;;;;;;4916762;29;20473;-83
2023/07/25 12:09:00;;;;;;;2.47;1.80;;;23.40;99.90;;;;;;4916799;29;20485;-78
2023/07/25 12:11:28;;;;;;;3.13;2.83;;;23.40;99.90;;;;;;4916939;29;20485;-84
2023/07/25 12:13:56;;;;;;;2.80;2.53;;;23.40;99.90;;;;;;4917004;29;20560;-78
2023/07/25 12:16:30;;;;;;;2.30;1.73;;;23.50;99.90;;;;;;4916356;29;20458;-78
2023/07/25 12:19:00;;;;;;;3.50;2.27;;;23.60;99.40;;;;;;4917150;29;20813;-83
2023/07/25 12:21:31;;;;;;;3.00;1.90;;;23.80;98.70;;;;;;4915988;29;20540;-78
2023/07/25 12:24:00;;;;;;;2.37;1.97;;;23.80;98.50;;;;;;4916621;29;20518;-78
2023/07/25 12:26:27;;;;;;;2.40;1.63;;;23.90;98.50;;;;;;4916334;29;20966;-78
2023/07/25 12:28:55;;;;;;;2.43;2.23;;;23.90;98.60;;;;;;4917308;29;20478;-84
2023/07/25 12:31:23;;;;;;;5.03;3.33;;;23.90;98.20;;;;;;4915368;29;20477;-78
2023/07/25 12:33:51;;;;;;;5.73;2.50;;;23.80;98.30;;;;;;4916643;29;20478;-83
2023/07/25 12:36:21;;;;;;;3.50;2.53;;;23.80;98.40;;;;;;4917433;29;20478;-83
2023/07/25 12:38:50;;;;;;;4.43;2.37;;;23.70;97.80;;;;;;4916131;29;20797;-78
2023/07/25 12:41:17;;;;;;;3.43;2.20;;;23.60;97.70;;;;;;4915931;29;20475;-78
2023/07/25 12:43:46;;;;;;;2.23;1.67;;;23.50;97.60;;;;;;4916372;29;20473;-78
2023/07/25 12:46:12;;;;;;;2.67;2.03;;;23.50;97.40;;;;;;4915823;29;20508;-78
2023/07/25 12:48:39;;;;;;;3.90;2.50;;;23.40;97.60;;;;;;4916158;29;20489;-78
2023/07/25 12:51:07;;;;;;;2.77;1.63;;;23.40;97.70;;;;;;4916179;29;20484;-77